sensor_id;sensor_type;location;lat;lon;timestamp;P1;durP1;ratioP1;P2;durP2;ratioP2
57313;SDS011;53202;50.976;18.216;2023-04-03T00:01:32;16.30;;;7.20;;
57313;SDS011;53202;50.976;18.216;2023-04-03T00:03:58;21.30;;;5.10;;
57313;SDS011;53202;50.976;18.216;2023-04-03T00:06:24;19.90;;;6.10;;
57313;SDS011;53202;50.976;18.216;2023-04-03T00:08:50;14.90;;;4.50;;
57313;SDS011;53202;50.976;18.216;2023-04-03T00:11:17;13.10;;;4.20;;
57313;SDS011;53202;50.976;18.216;2023-04-03T00:13:43;13.80;;;4.10;;
57313;SDS011;53202;50.976;18.216;2023-04-03T00:16:10;13.90;;;3.90;;
57313;SDS011;53202;50.976;18.216;2023-04-03T00:18:37;11.60;;;4.00;;
57313;SDS011;53202;50.976;18.216;2023-04-03T00:21:05;10.30;;;3.70;;
57313;SDS011;53202;50.976;18.216;2023-04-03T00:23:34;12.80;;;4.70;;
57313;SDS011;53202;50.976;18.216;2023-04-03T00:26:01;15.20;;;4.50;;
57313;SDS011;53202;50.976;18.216;2023-04-03T00:28:27;9.40;;;3.80;;
57313;SDS011;53202;50.976;18.216;2023-04-03T00:30:53;12.70;;;3.60;;
57313;SDS011;53202;50.976;18.216;2023-04-03T00:33:20;14.20;;;4.40;;
57313;SDS011;53202;50.976;18.216;2023-04-03T00:35:47;14.50;;;4.20;;
57313;SDS011;53202;50.976;18.216;2023-04-03T00:38:14;11.10;;;4.50;;
57313;SDS011;53202;50.976;18.216;2023-04-03T00:40:43;14.90;;;3.60;;
57313;SDS011;53202;50.976;18.216;2023-04-03T00:43:18;13.10;;;3.60;;
57313;SDS011;53202;50.976;18.216;2023-04-03T00:45:47;12.70;;;3.80;;
57313;SDS011;53202;50.976;18.216;2023-04-03T00:48:16;13.20;;;3.60;;
57313;SDS011;53202;50.976;18.216;2023-04-03T00:50:44;17.40;;;4.90;;
57313;SDS011;53202;50.976;18.216;2023-04-03T00:53:13;16.20;;;4.10;;
57313;SDS011;53202;50.976;18.216;2023-04-03T00:55:42;10.00;;;4.90;;
57313;SDS011;53202;50.976;18.216;2023-04-03T00:58:08;13.60;;;4.50;;
57313;SDS011;53202;50.976;18.216;2023-04-03T01:00:36;19.60;;;4.30;;
57313;SDS011;53202;50.976;18.216;2023-04-03T01:03:04;10.10;;;3.70;;
57313;SDS011;53202;50.976;18.216;2023-04-03T01:05:30;11.50;;;4.20;;
57313;SDS011;53202;50.976;18.216;2023-04-03T01:07:57;13.10;;;4.00;;
57313;SDS011;53202;50.976;18.216;2023-04-03T01:10:23;9.40;;;3.90;;
57313;SDS011;53202;50.976;18.216;2023-04-03T01:12:51;12.50;;;4.90;;
57313;SDS011;53202;50.976;18.216;2023-04-03T01:15:19;10.00;;;4.50;;
57313;SDS011;53202;50.976;18.216;2023-04-03T01:17:49;10.50;;;4.70;;
57313;SDS011;53202;50.976;18.216;2023-04-03T01:23:12;12.40;;;4.90;;
57313;SDS011;53202;50.976;18.216;2023-04-03T01:25:48;10.60;;;4.50;;
57313;SDS011;53202;50.976;18.216;2023-04-03T01:28:19;15.90;;;5.70;;
57313;SDS011;53202;50.976;18.216;2023-04-03T01:33:54;44.70;;;19.70;;
57313;SDS011;53202;50.976;18.216;2023-04-03T01:36:23;17.40;;;7.60;;
57313;SDS011;53202;50.976;18.216;2023-04-03T01:38:51;23.00;;;8.60;;
57313;SDS011;53202;50.976;18.216;2023-04-03T01:41:18;24.30;;;8.40;;
57313;SDS011;53202;50.976;18.216;2023-04-03T01:43:46;18.60;;;6.50;;
57313;SDS011;53202;50.976;18.216;2023-04-03T01:46:12;18.00;;;6.60;;
57313;SDS011;53202;50.976;18.216;2023-04-03T01:48:39;21.70;;;8.10;;
57313;SDS011;53202;50.976;18.216;2023-04-03T01:51:05;21.80;;;7.10;;
57313;SDS011;53202;50.976;18.216;2023-04-03T01:53:31;19.50;;;8.20;;
57313;SDS011;53202;50.976;18.216;2023-04-03T01:55:57;20.80;;;6.40;;
57313;SDS011;53202;50.976;18.216;2023-04-03T01:58:23;20.90;;;6.10;;
57313;SDS011;53202;50.976;18.216;2023-04-03T02:00:50;17.00;;;6.90;;
57313;SDS011;53202;50.976;18.216;2023-04-03T02:03:17;17.40;;;6.70;;
57313;SDS011;53202;50.976;18.216;2023-04-03T02:05:44;16.90;;;6.70;;
57313;SDS011;53202;50.976;18.216;2023-04-03T02:08:10;19.50;;;6.20;;
57313;SDS011;53202;50.976;18.216;2023-04-03T02:10:36;15.30;;;6.50;;
57313;SDS011;53202;50.976;18.216;2023-04-03T02:13:02;17.10;;;6.20;;
57313;SDS011;53202;50.976;18.216;2023-04-03T02:15:29;14.90;;;6.00;;
57313;SDS011;53202;50.976;18.216;2023-04-03T02:17:55;18.20;;;6.10;;
57313;SDS011;53202;50.976;18.216;2023-04-03T02:20:21;22.30;;;6.90;;
57313;SDS011;53202;50.976;18.216;2023-04-03T02:22:47;21.60;;;6.40;;
57313;SDS011;53202;50.976;18.216;2023-04-03T02:25:13;19.60;;;6.70;;
57313;SDS011;53202;50.976;18.216;2023-04-03T02:27:40;14.80;;;6.70;;
57313;SDS011;53202;50.976;18.216;2023-04-03T02:30:06;18.40;;;7.20;;
57313;SDS011;53202;50.976;18.216;2023-04-03T02:32:34;17.90;;;7.30;;
57313;SDS011;53202;50.976;18.216;2023-04-03T02:35:00;15.70;;;7.40;;
57313;SDS011;53202;50.976;18.216;2023-04-03T02:37:27;20.70;;;7.00;;
57313;SDS011;53202;50.976;18.216;2023-04-03T02:39:53;19.80;;;7.40;;
57313;SDS011;53202;50.976;18.216;2023-04-03T02:42:19;17.50;;;7.60;;
57313;SDS011;53202;50.976;18.216;2023-04-03T02:44:45;23.50;;;8.40;;
57313;SDS011;53202;50.976;18.216;2023-04-03T02:47:11;24.60;;;9.00;;
57313;SDS011;53202;50.976;18.216;2023-04-03T02:49:38;29.00;;;10.20;;
57313;SDS011;53202;50.976;18.216;2023-04-03T02:52:04;28.40;;;8.40;;
57313;SDS011;53202;50.976;18.216;2023-04-03T02:54:30;25.60;;;8.30;;
57313;SDS011;53202;50.976;18.216;2023-04-03T02:56:56;22.90;;;7.90;;
57313;SDS011;53202;50.976;18.216;2023-04-03T02:59:23;24.50;;;9.60;;
57313;SDS011;53202;50.976;18.216;2023-04-03T03:01:49;25.20;;;9.60;;
57313;SDS011;53202;50.976;18.216;2023-04-03T03:04:15;27.80;;;12.30;;
57313;SDS011;53202;50.976;18.216;2023-04-03T03:06:41;23.20;;;12.00;;
57313;SDS011;53202;50.976;18.216;2023-04-03T03:09:07;30.00;;;12.50;;
57313;SDS011;53202;50.976;18.216;2023-04-03T03:11:33;32.00;;;14.90;;
57313;SDS011;53202;50.976;18.216;2023-04-03T03:13:59;32.50;;;14.80;;
57313;SDS011;53202;50.976;18.216;2023-04-03T03:16:25;37.40;;;16.60;;
57313;SDS011;53202;50.976;18.216;2023-04-03T03:18:52;41.20;;;18.40;;
57313;SDS011;53202;50.976;18.216;2023-04-03T03:21:18;32.90;;;17.60;;
57313;SDS011;53202;50.976;18.216;2023-04-03T03:23:44;35.70;;;17.30;;
57313;SDS011;53202;50.976;18.216;2023-04-03T03:26:10;35.20;;;19.70;;
57313;SDS011;53202;50.976;18.216;2023-04-03T03:28:37;21.80;;;12.30;;
57313;SDS011;53202;50.976;18.216;2023-04-03T03:31:04;43.50;;;21.10;;
57313;SDS011;53202;50.976;18.216;2023-04-03T03:33:30;33.00;;;17.30;;
57313;SDS011;53202;50.976;18.216;2023-04-03T03:35:57;26.10;;;13.10;;
57313;SDS011;53202;50.976;18.216;2023-04-03T03:38:23;26.60;;;12.00;;
57313;SDS011;53202;50.976;18.216;2023-04-03T03:40:50;21.70;;;10.90;;
57313;SDS011;53202;50.976;18.216;2023-04-03T03:43:17;28.70;;;12.60;;
57313;SDS011;53202;50.976;18.216;2023-04-03T03:45:43;23.80;;;11.90;;
57313;SDS011;53202;50.976;18.216;2023-04-03T03:48:10;28.60;;;11.60;;
57313;SDS011;53202;50.976;18.216;2023-04-03T03:50:37;33.60;;;14.60;;
57313;SDS011;53202;50.976;18.216;2023-04-03T03:53:03;37.00;;;18.20;;
57313;SDS011;53202;50.976;18.216;2023-04-03T03:55:29;28.40;;;12.50;;
57313;SDS011;53202;50.976;18.216;2023-04-03T03:57:55;27.10;;;11.40;;
57313;SDS011;53202;50.976;18.216;2023-04-03T04:00:22;28.40;;;12.10;;
57313;SDS011;53202;50.976;18.216;2023-04-03T04:02:48;25.20;;;11.40;;
57313;SDS011;53202;50.976;18.216;2023-04-03T04:05:14;24.00;;;10.90;;
57313;SDS011;53202;50.976;18.216;2023-04-03T04:07:40;23.00;;;12.60;;
57313;SDS011;53202;50.976;18.216;2023-04-03T04:10:07;27.40;;;12.70;;
57313;SDS011;53202;50.976;18.216;2023-04-03T04:12:33;22.00;;;10.00;;
57313;SDS011;53202;50.976;18.216;2023-04-03T04:15:01;21.50;;;10.00;;
57313;SDS011;53202;50.976;18.216;2023-04-03T04:17:27;22.30;;;9.90;;
57313;SDS011;53202;50.976;18.216;2023-04-03T04:19:53;26.40;;;9.10;;
57313;SDS011;53202;50.976;18.216;2023-04-03T04:22:20;23.90;;;10.90;;
57313;SDS011;53202;50.976;18.216;2023-04-03T04:24:46;27.10;;;10.50;;
57313;SDS011;53202;50.976;18.216;2023-04-03T04:27:12;21.20;;;10.30;;
57313;SDS011;53202;50.976;18.216;2023-04-03T04:29:38;26.70;;;11.00;;
57313;SDS011;53202;50.976;18.216;2023-04-03T04:32:04;26.60;;;10.60;;
57313;SDS011;53202;50.976;18.216;2023-04-03T04:34:30;26.70;;;11.30;;
57313;SDS011;53202;50.976;18.216;2023-04-03T04:36:56;33.90;;;13.40;;
57313;SDS011;53202;50.976;18.216;2023-04-03T04:39:22;33.40;;;15.40;;
57313;SDS011;53202;50.976;18.216;2023-04-03T04:41:48;21.20;;;12.20;;
57313;SDS011;53202;50.976;18.216;2023-04-03T04:44:14;21.60;;;9.70;;
57313;SDS011;53202;50.976;18.216;2023-04-03T04:46:40;32.70;;;11.70;;
57313;SDS011;53202;50.976;18.216;2023-04-03T04:49:06;26.50;;;11.60;;
57313;SDS011;53202;50.976;18.216;2023-04-03T04:51:32;24.50;;;10.40;;
57313;SDS011;53202;50.976;18.216;2023-04-03T04:53:58;26.50;;;9.80;;
57313;SDS011;53202;50.976;18.216;2023-04-03T04:56:24;22.60;;;10.60;;
57313;SDS011;53202;50.976;18.216;2023-04-03T04:58:50;20.40;;;10.40;;
57313;SDS011;53202;50.976;18.216;2023-04-03T05:01:16;26.70;;;12.40;;
57313;SDS011;53202;50.976;18.216;2023-04-03T05:03:44;29.60;;;15.60;;
57313;SDS011;53202;50.976;18.216;2023-04-03T05:06:10;32.30;;;13.60;;
57313;SDS011;53202;50.976;18.216;2023-04-03T05:08:36;27.80;;;12.50;;
57313;SDS011;53202;50.976;18.216;2023-04-03T05:11:02;30.90;;;14.10;;
57313;SDS011;53202;50.976;18.216;2023-04-03T05:13:28;27.20;;;11.40;;
57313;SDS011;53202;50.976;18.216;2023-04-03T05:15:54;23.00;;;12.00;;
57313;SDS011;53202;50.976;18.216;2023-04-03T05:18:20;23.30;;;8.90;;
57313;SDS011;53202;50.976;18.216;2023-04-03T05:20:48;29.10;;;12.10;;
57313;SDS011;53202;50.976;18.216;2023-04-03T05:23:14;32.30;;;12.20;;
57313;SDS011;53202;50.976;18.216;2023-04-03T05:25:40;32.50;;;13.20;;
57313;SDS011;53202;50.976;18.216;2023-04-03T05:28:06;27.20;;;10.70;;
57313;SDS011;53202;50.976;18.216;2023-04-03T05:30:32;28.10;;;10.90;;
57313;SDS011;53202;50.976;18.216;2023-04-03T05:32:59;22.10;;;10.90;;
57313;SDS011;53202;50.976;18.216;2023-04-03T05:35:25;25.00;;;13.20;;
57313;SDS011;53202;50.976;18.216;2023-04-03T05:37:51;27.50;;;12.80;;
57313;SDS011;53202;50.976;18.216;2023-04-03T05:40:17;23.60;;;9.60;;
57313;SDS011;53202;50.976;18.216;2023-04-03T05:42:44;38.90;;;26.20;;
57313;SDS011;53202;50.976;18.216;2023-04-03T05:45:10;27.40;;;12.40;;
57313;SDS011;53202;50.976;18.216;2023-04-03T05:47:36;25.80;;;10.80;;
57313;SDS011;53202;50.976;18.216;2023-04-03T05:50:02;20.70;;;9.70;;
57313;SDS011;53202;50.976;18.216;2023-04-03T05:52:30;20.40;;;8.10;;
57313;SDS011;53202;50.976;18.216;2023-04-03T05:55:00;28.90;;;10.30;;
57313;SDS011;53202;50.976;18.216;2023-04-03T05:57:26;21.70;;;10.30;;
57313;SDS011;53202;50.976;18.216;2023-04-03T05:59:52;21.20;;;9.10;;
57313;SDS011;53202;50.976;18.216;2023-04-03T06:02:19;17.80;;;8.30;;
57313;SDS011;53202;50.976;18.216;2023-04-03T06:04:46;17.10;;;8.40;;
57313;SDS011;53202;50.976;18.216;2023-04-03T06:07:14;23.40;;;8.40;;
57313;SDS011;53202;50.976;18.216;2023-04-03T06:09:42;20.70;;;8.00;;
57313;SDS011;53202;50.976;18.216;2023-04-03T06:12:09;16.60;;;7.90;;
57313;SDS011;53202;50.976;18.216;2023-04-03T06:14:36;27.10;;;12.20;;
57313;SDS011;53202;50.976;18.216;2023-04-03T06:17:03;19.10;;;7.20;;
57313;SDS011;53202;50.976;18.216;2023-04-03T06:19:29;20.40;;;7.30;;
57313;SDS011;53202;50.976;18.216;2023-04-03T06:21:55;21.40;;;7.00;;
57313;SDS011;53202;50.976;18.216;2023-04-03T06:24:22;15.00;;;6.30;;
57313;SDS011;53202;50.976;18.216;2023-04-03T06:26:49;14.60;;;5.90;;
57313;SDS011;53202;50.976;18.216;2023-04-03T06:29:16;12.60;;;5.40;;
57313;SDS011;53202;50.976;18.216;2023-04-03T06:31:43;13.80;;;5.60;;
57313;SDS011;53202;50.976;18.216;2023-04-03T06:34:09;16.60;;;6.30;;
57313;SDS011;53202;50.976;18.216;2023-04-03T06:36:37;13.60;;;5.60;;
57313;SDS011;53202;50.976;18.216;2023-04-03T06:39:04;11.30;;;4.80;;
57313;SDS011;53202;50.976;18.216;2023-04-03T06:41:30;15.50;;;5.60;;
57313;SDS011;53202;50.976;18.216;2023-04-03T06:43:56;15.60;;;5.50;;
57313;SDS011;53202;50.976;18.216;2023-04-03T06:46:24;13.70;;;6.00;;
57313;SDS011;53202;50.976;18.216;2023-04-03T06:48:51;16.80;;;5.30;;
57313;SDS011;53202;50.976;18.216;2023-04-03T06:51:19;9.90;;;4.50;;
57313;SDS011;53202;50.976;18.216;2023-04-03T06:53:47;11.00;;;4.40;;
57313;SDS011;53202;50.976;18.216;2023-04-03T06:56:14;11.70;;;4.70;;
57313;SDS011;53202;50.976;18.216;2023-04-03T06:58:40;11.90;;;4.40;;
57313;SDS011;53202;50.976;18.216;2023-04-03T07:01:07;11.70;;;4.40;;
57313;SDS011;53202;50.976;18.216;2023-04-03T07:03:35;15.40;;;5.20;;
57313;SDS011;53202;50.976;18.216;2023-04-03T07:06:03;14.80;;;4.60;;
57313;SDS011;53202;50.976;18.216;2023-04-03T07:08:30;14.40;;;5.40;;
57313;SDS011;53202;50.976;18.216;2023-04-03T07:10:56;15.20;;;4.10;;
57313;SDS011;53202;50.976;18.216;2023-04-03T07:13:22;14.50;;;4.60;;
57313;SDS011;53202;50.976;18.216;2023-04-03T07:15:48;11.70;;;4.60;;
57313;SDS011;53202;50.976;18.216;2023-04-03T07:18:14;15.30;;;5.00;;
57313;SDS011;53202;50.976;18.216;2023-04-03T07:20:40;15.50;;;4.40;;
57313;SDS011;53202;50.976;18.216;2023-04-03T07:23:06;18.10;;;4.30;;
57313;SDS011;53202;50.976;18.216;2023-04-03T07:25:33;12.40;;;4.60;;
57313;SDS011;53202;50.976;18.216;2023-04-03T07:27:59;10.00;;;4.90;;
57313;SDS011;53202;50.976;18.216;2023-04-03T07:30:25;11.40;;;5.20;;
57313;SDS011;53202;50.976;18.216;2023-04-03T07:32:51;11.10;;;4.30;;
57313;SDS011;53202;50.976;18.216;2023-04-03T07:35:18;11.70;;;4.10;;
57313;SDS011;53202;50.976;18.216;2023-04-03T07:37:46;14.00;;;4.70;;
57313;SDS011;53202;50.976;18.216;2023-04-03T07:40:12;10.60;;;4.10;;
57313;SDS011;53202;50.976;18.216;2023-04-03T07:42:39;15.20;;;4.80;;
57313;SDS011;53202;50.976;18.216;2023-04-03T07:45:05;11.10;;;5.20;;
57313;SDS011;53202;50.976;18.216;2023-04-03T07:47:31;11.90;;;4.90;;
57313;SDS011;53202;50.976;18.216;2023-04-03T07:49:57;13.40;;;4.10;;
57313;SDS011;53202;50.976;18.216;2023-04-03T07:52:23;15.10;;;4.00;;
57313;SDS011;53202;50.976;18.216;2023-04-03T07:54:50;13.20;;;3.40;;
57313;SDS011;53202;50.976;18.216;2023-04-03T07:57:16;10.40;;;5.50;;
57313;SDS011;53202;50.976;18.216;2023-04-03T07:59:42;6.20;;;3.40;;
57313;SDS011;53202;50.976;18.216;2023-04-03T08:02:09;8.70;;;3.20;;
57313;SDS011;53202;50.976;18.216;2023-04-03T08:04:38;8.30;;;3.20;;
57313;SDS011;53202;50.976;18.216;2023-04-03T08:07:05;9.40;;;3.70;;
57313;SDS011;53202;50.976;18.216;2023-04-03T08:09:31;7.80;;;3.30;;
57313;SDS011;53202;50.976;18.216;2023-04-03T08:11:58;9.80;;;3.50;;
57313;SDS011;53202;50.976;18.216;2023-04-03T08:14:24;11.80;;;2.70;;
57313;SDS011;53202;50.976;18.216;2023-04-03T08:16:50;7.80;;;2.60;;
57313;SDS011;53202;50.976;18.216;2023-04-03T08:19:16;6.60;;;2.60;;
57313;SDS011;53202;50.976;18.216;2023-04-03T08:21:43;9.20;;;3.30;;
57313;SDS011;53202;50.976;18.216;2023-04-03T08:24:10;13.10;;;2.80;;
57313;SDS011;53202;50.976;18.216;2023-04-03T08:26:37;6.20;;;2.00;;
57313;SDS011;53202;50.976;18.216;2023-04-03T08:29:03;10.10;;;2.50;;
57313;SDS011;53202;50.976;18.216;2023-04-03T08:31:29;7.70;;;2.10;;
57313;SDS011;53202;50.976;18.216;2023-04-03T08:33:57;5.60;;;2.30;;
57313;SDS011;53202;50.976;18.216;2023-04-03T08:36:24;9.00;;;3.00;;
57313;SDS011;53202;50.976;18.216;2023-04-03T08:38:52;7.30;;;2.00;;
57313;SDS011;53202;50.976;18.216;2023-04-03T08:41:20;7.30;;;1.80;;
57313;SDS011;53202;50.976;18.216;2023-04-03T08:47:18;6.60;;;1.90;;
57313;SDS011;53202;50.976;18.216;2023-04-03T08:49:55;7.10;;;2.30;;
57313;SDS011;53202;50.976;18.216;2023-04-03T08:52:28;6.50;;;2.30;;
57313;SDS011;53202;50.976;18.216;2023-04-03T08:55:01;5.40;;;1.80;;
57313;SDS011;53202;50.976;18.216;2023-04-03T08:59:59;10.80;;;2.40;;
57313;SDS011;53202;50.976;18.216;2023-04-03T09:02:40;6.10;;;2.00;;
57313;SDS011;53202;50.976;18.216;2023-04-03T09:05:11;7.10;;;1.60;;
57313;SDS011;53202;50.976;18.216;2023-04-03T09:07:42;6.90;;;1.60;;
57313;SDS011;53202;50.976;18.216;2023-04-03T09:10:14;5.80;;;2.10;;
57313;SDS011;53202;50.976;18.216;2023-04-03T09:12:41;5.40;;;1.80;;
57313;SDS011;53202;50.976;18.216;2023-04-03T09:15:15;5.30;;;1.80;;
57313;SDS011;53202;50.976;18.216;2023-04-03T09:17:49;4.90;;;1.90;;
57313;SDS011;53202;50.976;18.216;2023-04-03T09:20:26;5.60;;;1.80;;
57313;SDS011;53202;50.976;18.216;2023-04-03T09:23:17;6.90;;;2.10;;
57313;SDS011;53202;50.976;18.216;2023-04-03T09:26:03;5.50;;;2.00;;
57313;SDS011;53202;50.976;18.216;2023-04-03T09:28:35;6.10;;;2.00;;
57313;SDS011;53202;50.976;18.216;2023-04-03T09:33:40;8.10;;;2.20;;
57313;SDS011;53202;50.976;18.216;2023-04-03T09:36:06;4.30;;;1.80;;
57313;SDS011;53202;50.976;18.216;2023-04-03T09:38:32;6.20;;;1.70;;
57313;SDS011;53202;50.976;18.216;2023-04-03T09:41:11;6.60;;;2.70;;
57313;SDS011;53202;50.976;18.216;2023-04-03T09:43:41;7.40;;;2.00;;
57313;SDS011;53202;50.976;18.216;2023-04-03T09:46:24;7.50;;;2.10;;
57313;SDS011;53202;50.976;18.216;2023-04-03T09:48:56;5.60;;;2.80;;
57313;SDS011;53202;50.976;18.216;2023-04-03T09:51:25;11.90;;;2.30;;
57313;SDS011;53202;50.976;18.216;2023-04-03T09:53:53;7.20;;;2.20;;
57313;SDS011;53202;50.976;18.216;2023-04-03T09:56:22;6.00;;;2.30;;
57313;SDS011;53202;50.976;18.216;2023-04-03T09:59:06;4.40;;;2.00;;
57313;SDS011;53202;50.976;18.216;2023-04-03T10:01:37;10.20;;;3.70;;
57313;SDS011;53202;50.976;18.216;2023-04-03T10:06:47;6.50;;;2.50;;
57313;SDS011;53202;50.976;18.216;2023-04-03T10:09:23;13.20;;;3.10;;
57313;SDS011;53202;50.976;18.216;2023-04-03T10:12:08;15.60;;;6.40;;
57313;SDS011;53202;50.976;18.216;2023-04-03T10:14:38;6.10;;;2.40;;
57313;SDS011;53202;50.976;18.216;2023-04-03T10:20:09;7.80;;;3.20;;
57313;SDS011;53202;50.976;18.216;2023-04-03T10:22:54;12.90;;;3.40;;
57313;SDS011;53202;50.976;18.216;2023-04-03T10:28:19;7.30;;;3.10;;
57313;SDS011;53202;50.976;18.216;2023-04-03T10:30:56;4.70;;;2.00;;
57313;SDS011;53202;50.976;18.216;2023-04-03T10:36:25;8.00;;;2.10;;
57313;SDS011;53202;50.976;18.216;2023-04-03T10:42:03;7.10;;;2.40;;
57313;SDS011;53202;50.976;18.216;2023-04-03T10:44:49;9.60;;;2.50;;
57313;SDS011;53202;50.976;18.216;2023-04-03T10:47:23;6.20;;;2.60;;
57313;SDS011;53202;50.976;18.216;2023-04-03T10:49:56;11.30;;;4.20;;
57313;SDS011;53202;50.976;18.216;2023-04-03T10:52:31;9.80;;;4.80;;
57313;SDS011;53202;50.976;18.216;2023-04-03T10:55:24;7.70;;;3.20;;
57313;SDS011;53202;50.976;18.216;2023-04-03T10:57:57;7.10;;;2.80;;
57313;SDS011;53202;50.976;18.216;2023-04-03T11:00:30;5.80;;;1.50;;
57313;SDS011;53202;50.976;18.216;2023-04-03T11:03:05;6.10;;;2.70;;
57313;SDS011;53202;50.976;18.216;2023-04-03T11:11:08;10.30;;;5.00;;
57313;SDS011;53202;50.976;18.216;2023-04-03T11:13:39;16.00;;;6.90;;
57313;SDS011;53202;50.976;18.216;2023-04-03T11:16:08;15.10;;;5.20;;
57313;SDS011;53202;50.976;18.216;2023-04-03T11:18:36;8.30;;;3.80;;
57313;SDS011;53202;50.976;18.216;2023-04-03T11:21:08;9.80;;;4.90;;
57313;SDS011;53202;50.976;18.216;2023-04-03T11:23:40;15.30;;;5.10;;
57313;SDS011;53202;50.976;18.216;2023-04-03T11:26:08;6.80;;;3.10;;
57313;SDS011;53202;50.976;18.216;2023-04-03T11:28:37;8.10;;;3.70;;
57313;SDS011;53202;50.976;18.216;2023-04-03T11:34:08;8.50;;;3.70;;
57313;SDS011;53202;50.976;18.216;2023-04-03T11:36:56;8.70;;;3.10;;
57313;SDS011;53202;50.976;18.216;2023-04-03T11:39:26;9.70;;;2.90;;
57313;SDS011;53202;50.976;18.216;2023-04-03T11:41:54;7.20;;;3.20;;
57313;SDS011;53202;50.976;18.216;2023-04-03T11:44:29;7.30;;;4.00;;
57313;SDS011;53202;50.976;18.216;2023-04-03T11:47:02;8.40;;;4.10;;
57313;SDS011;53202;50.976;18.216;2023-04-03T11:58:14;7.50;;;4.60;;
57313;SDS011;53202;50.976;18.216;2023-04-03T12:00:46;4.90;;;2.10;;
57313;SDS011;53202;50.976;18.216;2023-04-03T12:12:07;7.70;;;2.90;;
57313;SDS011;53202;50.976;18.216;2023-04-03T12:14:55;6.70;;;2.90;;
57313;SDS011;53202;50.976;18.216;2023-04-03T12:17:23;4.70;;;1.90;;
57313;SDS011;53202;50.976;18.216;2023-04-03T12:19:52;7.00;;;2.60;;
57313;SDS011;53202;50.976;18.216;2023-04-03T12:22:19;9.80;;;2.50;;
57313;SDS011;53202;50.976;18.216;2023-04-03T12:24:48;6.40;;;2.40;;
57313;SDS011;53202;50.976;18.216;2023-04-03T12:27:21;6.10;;;2.70;;
57313;SDS011;53202;50.976;18.216;2023-04-03T12:29:52;5.70;;;2.60;;
57313;SDS011;53202;50.976;18.216;2023-04-03T12:32:42;4.70;;;2.30;;
57313;SDS011;53202;50.976;18.216;2023-04-03T12:40:57;3.60;;;1.70;;
57313;SDS011;53202;50.976;18.216;2023-04-03T12:43:43;3.20;;;1.60;;
57313;SDS011;53202;50.976;18.216;2023-04-03T12:46:36;8.10;;;3.90;;
57313;SDS011;53202;50.976;18.216;2023-04-03T12:49:12;11.40;;;2.30;;
57313;SDS011;53202;50.976;18.216;2023-04-03T12:51:46;6.20;;;2.00;;
57313;SDS011;53202;50.976;18.216;2023-04-03T12:54:15;6.70;;;2.90;;
57313;SDS011;53202;50.976;18.216;2023-04-03T12:56:44;8.00;;;3.10;;
57313;SDS011;53202;50.976;18.216;2023-04-03T12:59:26;12.40;;;8.30;;
57313;SDS011;53202;50.976;18.216;2023-04-03T13:01:53;8.20;;;3.70;;
57313;SDS011;53202;50.976;18.216;2023-04-03T13:04:22;6.00;;;2.70;;
57313;SDS011;53202;50.976;18.216;2023-04-03T13:06:49;6.90;;;2.70;;
57313;SDS011;53202;50.976;18.216;2023-04-03T13:11:56;5.40;;;2.80;;
57313;SDS011;53202;50.976;18.216;2023-04-03T13:14:25;6.50;;;2.70;;
57313;SDS011;53202;50.976;18.216;2023-04-03T13:16:56;5.80;;;2.70;;
57313;SDS011;53202;50.976;18.216;2023-04-03T13:19:24;7.20;;;2.30;;
57313;SDS011;53202;50.976;18.216;2023-04-03T13:22:28;5.80;;;2.30;;
57313;SDS011;53202;50.976;18.216;2023-04-03T13:24:55;7.20;;;2.50;;
57313;SDS011;53202;50.976;18.216;2023-04-03T13:27:23;17.90;;;8.90;;
57313;SDS011;53202;50.976;18.216;2023-04-03T13:29:52;34.70;;;15.60;;
57313;SDS011;53202;50.976;18.216;2023-04-03T13:32:21;28.40;;;11.00;;
57313;SDS011;53202;50.976;18.216;2023-04-03T13:37:24;12.70;;;2.40;;
57313;SDS011;53202;50.976;18.216;2023-04-03T13:40:12;4.40;;;1.80;;
57313;SDS011;53202;50.976;18.216;2023-04-03T13:42:38;12.10;;;4.80;;
57313;SDS011;53202;50.976;18.216;2023-04-03T13:45:09;11.50;;;4.50;;
57313;SDS011;53202;50.976;18.216;2023-04-03T13:47:47;9.40;;;4.50;;
57313;SDS011;53202;50.976;18.216;2023-04-03T13:50:16;8.50;;;3.10;;
57313;SDS011;53202;50.976;18.216;2023-04-03T13:52:49;4.80;;;2.80;;
57313;SDS011;53202;50.976;18.216;2023-04-03T13:55:21;6.40;;;2.20;;
57313;SDS011;53202;50.976;18.216;2023-04-03T13:57:53;7.80;;;3.20;;
57313;SDS011;53202;50.976;18.216;2023-04-03T14:00:39;7.70;;;3.70;;
57313;SDS011;53202;50.976;18.216;2023-04-03T14:03:16;5.10;;;2.50;;
57313;SDS011;53202;50.976;18.216;2023-04-03T14:05:48;5.00;;;1.90;;
57313;SDS011;53202;50.976;18.216;2023-04-03T14:08:14;5.40;;;2.30;;
57313;SDS011;53202;50.976;18.216;2023-04-03T14:10:41;5.00;;;2.40;;
57313;SDS011;53202;50.976;18.216;2023-04-03T14:13:09;6.10;;;2.40;;
57313;SDS011;53202;50.976;18.216;2023-04-03T14:15:37;4.30;;;2.00;;
57313;SDS011;53202;50.976;18.216;2023-04-03T14:18:03;5.20;;;2.70;;
57313;SDS011;53202;50.976;18.216;2023-04-03T14:20:30;7.10;;;2.60;;
57313;SDS011;53202;50.976;18.216;2023-04-03T14:22:56;6.90;;;3.10;;
57313;SDS011;53202;50.976;18.216;2023-04-03T14:25:22;4.10;;;2.30;;
57313;SDS011;53202;50.976;18.216;2023-04-03T14:27:52;6.70;;;2.30;;
57313;SDS011;53202;50.976;18.216;2023-04-03T14:30:20;6.10;;;2.40;;
57313;SDS011;53202;50.976;18.216;2023-04-03T14:32:50;6.30;;;2.60;;
57313;SDS011;53202;50.976;18.216;2023-04-03T14:35:17;29.40;;;12.60;;
57313;SDS011;53202;50.976;18.216;2023-04-03T14:37:44;9.80;;;4.50;;
57313;SDS011;53202;50.976;18.216;2023-04-03T14:40:15;5.90;;;3.90;;
57313;SDS011;53202;50.976;18.216;2023-04-03T14:42:45;6.70;;;2.60;;
57313;SDS011;53202;50.976;18.216;2023-04-03T14:45:14;5.30;;;2.60;;
57313;SDS011;53202;50.976;18.216;2023-04-03T14:47:45;6.30;;;2.40;;
57313;SDS011;53202;50.976;18.216;2023-04-03T14:50:16;6.20;;;2.50;;
57313;SDS011;53202;50.976;18.216;2023-04-03T14:52:46;7.70;;;2.80;;
57313;SDS011;53202;50.976;18.216;2023-04-03T14:55:15;5.70;;;2.50;;
57313;SDS011;53202;50.976;18.216;2023-04-03T14:57:42;14.30;;;2.60;;
57313;SDS011;53202;50.976;18.216;2023-04-03T15:00:13;6.00;;;3.20;;
57313;SDS011;53202;50.976;18.216;2023-04-03T15:02:44;5.00;;;2.30;;
57313;SDS011;53202;50.976;18.216;2023-04-03T15:05:11;7.40;;;2.20;;
57313;SDS011;53202;50.976;18.216;2023-04-03T15:07:39;6.70;;;2.30;;
57313;SDS011;53202;50.976;18.216;2023-04-03T15:10:16;5.90;;;1.90;;
57313;SDS011;53202;50.976;18.216;2023-04-03T15:12:44;6.80;;;2.50;;
57313;SDS011;53202;50.976;18.216;2023-04-03T15:15:11;9.90;;;3.20;;
57313;SDS011;53202;50.976;18.216;2023-04-03T15:17:37;9.10;;;3.70;;
57313;SDS011;53202;50.976;18.216;2023-04-03T15:20:10;7.10;;;4.30;;
57313;SDS011;53202;50.976;18.216;2023-04-03T15:22:40;10.40;;;4.00;;
57313;SDS011;53202;50.976;18.216;2023-04-03T15:25:07;8.80;;;4.00;;
57313;SDS011;53202;50.976;18.216;2023-04-03T15:27:34;8.30;;;4.10;;
57313;SDS011;53202;50.976;18.216;2023-04-03T15:30:00;7.80;;;3.80;;
57313;SDS011;53202;50.976;18.216;2023-04-03T15:32:26;9.00;;;3.60;;
57313;SDS011;53202;50.976;18.216;2023-04-03T15:34:53;10.40;;;3.70;;
57313;SDS011;53202;50.976;18.216;2023-04-03T15:37:19;10.30;;;3.90;;
57313;SDS011;53202;50.976;18.216;2023-04-03T15:39:45;7.80;;;4.20;;